createdAt,value
2018-06-24T00:00:02.391Z,96177.13
2018-06-24T00:02:32.558Z,96179.88
2018-06-24T00:05:02.667Z,96176.11
2018-06-24T00:07:32.944Z,96181.64
2018-06-24T00:10:03.042Z,96175.44
2018-06-24T00:12:33.160Z,96171.12
2018-06-24T00:15:03.289Z,96171.71
2018-06-24T00:17:33.457Z,96165.50
2018-06-24T00:20:03.598Z,96161.34
2018-06-24T00:22:33.246Z,96166.36
2018-06-24T00:25:03.343Z,96162.16
2018-06-24T00:27:33.551Z,96161.02
2018-06-24T00:30:03.683Z,96162.81
2018-06-24T00:32:33.762Z,96156.06
2018-06-24T00:35:03.894Z,96157.82
2018-06-24T00:37:33.953Z,96156.41
2018-06-24T00:40:03.721Z,96153.14
2018-06-24T00:42:33.886Z,96151.81
2018-06-24T00:45:04.045Z,96150.05
2018-06-24T00:47:34.100Z,96152.63
2018-06-24T00:50:04.246Z,96143.30
2018-06-24T00:52:34.332Z,96143.22
2018-06-24T00:55:04.415Z,96144.64
2018-06-24T00:57:34.454Z,96141.38
2018-06-24T01:00:17.695Z,96137.29
2018-06-24T01:02:47.738Z,96138.45
2018-06-24T01:05:17.830Z,96138.17
2018-06-24T01:07:47.886Z,96140.95
2018-06-24T01:10:18.009Z,96132.95
2018-06-24T01:12:48.087Z,96136.84
2018-06-24T01:15:18.207Z,96123.28
2018-06-24T01:17:48.272Z,96126.77
2018-06-24T01:20:18.336Z,96132.19
2018-06-24T01:22:48.417Z,96127.05
2018-06-24T01:25:18.571Z,96123.05
2018-06-24T01:27:48.213Z,96125.20
2018-06-24T01:30:18.292Z,96127.95
2018-06-24T01:32:48.345Z,96118.03
2018-06-24T01:35:18.446Z,96120.78
2018-06-24T01:37:48.521Z,96115.22
2018-06-24T01:40:18.594Z,96117.38
2018-06-24T01:42:48.681Z,96109.61
2018-06-24T01:45:18.758Z,96111.52
2018-06-24T01:47:48.881Z,96110.61
2018-06-24T01:50:18.970Z,96106.52
2018-06-24T01:52:49.023Z,96098.13
2018-06-24T01:55:19.166Z,96099.37
2018-06-24T01:57:49.203Z,96100.23
2018-06-24T02:00:19.258Z,96089.94
2018-06-24T02:02:49.299Z,96094.67
2018-06-24T02:05:19.001Z,96087.84
2018-06-24T02:07:49.154Z,96089.40
2018-06-24T02:10:19.240Z,96092.57
2018-06-24T02:12:49.275Z,96082.05
2018-06-24T02:15:19.366Z,96087.21
2018-06-24T02:17:49.372Z,96089.42
2018-06-24T02:20:19.427Z,96076.20
2018-06-24T02:22:49.476Z,96082.78
2018-06-24T02:25:19.558Z,96076.77
2018-06-24T02:27:49.573Z,96077.13
2018-06-24T02:30:19.659Z,96078.59
2018-06-24T02:32:49.677Z,96076.58
2018-06-24T02:35:19.758Z,96082.55
2018-06-24T02:37:49.807Z,96076.82
2018-06-24T02:40:19.924Z,96072.83
2018-06-24T02:42:49.986Z,96076.45
2018-06-24T02:45:20.063Z,96073.09
2018-06-24T02:47:49.712Z,96067.91
2018-06-24T02:50:19.802Z,96069.94
2018-06-24T02:52:49.840Z,96062.81
2018-06-24T02:55:19.935Z,96054.64
2018-06-24T02:57:49.977Z,96057.44
2018-06-24T03:00:20.194Z,96054.69
2018-06-24T03:02:50.207Z,96054.59
2018-06-24T03:05:20.319Z,96049.59
2018-06-24T03:07:50.055Z,96049.62
2018-06-24T03:10:20.109Z,96056.88
2018-06-24T03:12:50.486Z,96048.20
2018-06-24T03:15:20.105Z,96050.26
2018-06-24T03:17:49.772Z,96055.39
2018-06-24T03:20:19.838Z,96046.81
2018-06-24T03:22:49.596Z,96057.08
2018-06-24T03:25:19.651Z,96059.80
2018-06-24T03:27:49.705Z,96060.14
2018-06-24T03:30:19.789Z,96060.23
2018-06-24T03:32:49.849Z,96057.96
2018-06-24T03:35:19.908Z,96054.38
2018-06-24T03:37:49.936Z,96051.27
2018-06-24T03:40:20.015Z,96050.39
2018-06-24T03:42:50.069Z,96050.93
2018-06-24T03:45:20.148Z,96046.63
2018-06-24T03:47:49.949Z,96040.48
2018-06-24T03:50:20.000Z,96037.22
2018-06-24T03:52:50.141Z,96045.10
2018-06-24T03:55:20.174Z,96039.78
2018-06-24T03:57:50.270Z,96038.45
2018-06-24T04:00:20.361Z,96031.20
2018-06-24T04:02:50.438Z,96035.19
2018-06-24T04:05:20.542Z,96036.42
2018-06-24T04:07:50.615Z,96035.16
2018-06-24T04:10:20.686Z,96050.11
2018-06-24T04:12:50.783Z,96053.14
2018-06-24T04:15:20.901Z,96055.11
2018-06-24T04:17:51.043Z,96057.42
2018-06-24T04:20:21.074Z,96053.39
2018-06-24T04:22:51.167Z,96047.52
2018-06-24T04:25:20.803Z,96050.37
2018-06-24T04:27:50.891Z,96052.58
2018-06-24T04:30:20.949Z,96053.27
2018-06-24T04:32:51.049Z,96051.98
2018-06-24T04:35:21.120Z,96054.74
2018-06-24T04:37:51.210Z,96056.03
2018-06-24T04:40:21.262Z,96048.36
2018-06-24T04:42:51.354Z,96054.78
2018-06-24T04:45:21.370Z,96049.12
2018-06-24T04:47:51.477Z,96052.34
2018-06-24T04:50:21.093Z,96058.02
2018-06-24T04:52:51.275Z,96058.64
2018-06-24T04:55:21.491Z,96052.09
2018-06-24T04:57:51.589Z,96057.53
2018-06-24T05:00:21.651Z,96053.44
2018-06-24T05:02:52.046Z,96055.89
2018-06-24T05:05:22.137Z,96051.75
2018-06-24T05:07:52.013Z,96053.69
2018-06-24T05:10:22.096Z,96051.09
2018-06-24T05:12:52.159Z,96055.17
2018-06-24T05:15:22.221Z,96049.59
2018-06-24T05:17:52.327Z,96045.89
2018-06-24T05:20:22.394Z,96046.61
2018-06-24T05:22:52.558Z,96046.59
2018-06-24T05:25:22.643Z,96043.73
2018-06-24T05:27:52.841Z,96043.54
2018-06-24T05:30:22.478Z,96044.47
2018-06-24T05:32:52.555Z,96045.39
2018-06-24T05:35:22.655Z,96053.49
2018-06-24T05:37:52.872Z,96053.75
2018-06-24T05:40:22.465Z,96056.33
2018-06-24T05:42:52.608Z,96052.65
2018-06-24T05:45:22.742Z,96050.89
2018-06-24T05:47:52.961Z,96054.19
2018-06-24T05:50:23.028Z,96059.47
2018-06-24T05:52:53.060Z,96058.13
2018-06-24T05:55:23.180Z,96056.36
2018-06-24T05:57:53.293Z,96057.11
2018-06-24T06:00:22.929Z,96059.97
2018-06-24T06:02:53.021Z,96057.22
2018-06-24T06:05:23.169Z,96057.13
2018-06-24T06:07:53.395Z,96054.78
2018-06-24T06:10:23.545Z,96055.33
2018-06-24T06:12:53.601Z,96062.83
2018-06-24T06:15:23.717Z,96054.48
2018-06-24T06:17:53.765Z,96049.48
2018-06-24T06:20:23.469Z,96053.25
2018-06-24T06:22:53.110Z,96059.39
2018-06-24T06:25:23.181Z,96059.18
2018-06-24T06:27:53.269Z,96055.19
2018-06-24T06:30:23.440Z,96054.66
2018-06-24T06:32:53.486Z,96052.77
2018-06-24T06:35:23.549Z,96050.95
2018-06-24T06:37:53.599Z,96048.97
2018-06-24T06:40:23.702Z,96051.77
2018-06-24T06:42:53.784Z,96049.07
2018-06-24T06:45:24.154Z,96047.17
2018-06-24T06:47:53.716Z,96047.95
2018-06-24T06:50:23.795Z,96050.72
2018-06-24T06:52:53.919Z,96042.48
2018-06-24T06:55:24.004Z,96046.41
2018-06-24T06:57:54.097Z,96046.00
2018-06-24T07:00:24.199Z,96046.48
2018-06-24T07:02:54.245Z,96044.30
2018-06-24T07:05:24.387Z,96038.69
2018-06-24T07:07:54.692Z,96040.72
2018-06-24T07:10:24.775Z,96042.59
2018-06-24T07:12:55.253Z,96040.66
2018-06-24T07:15:25.336Z,96035.19
2018-06-24T07:17:55.374Z,96038.60
2018-06-24T07:20:25.494Z,96033.93
2018-06-24T07:22:55.160Z,96035.81
2018-06-24T07:25:25.277Z,96031.11
2018-06-24T07:27:56.162Z,96031.48
2018-06-24T07:30:26.321Z,96033.16
2018-06-24T07:32:58.869Z,96030.42
2018-06-24T07:35:29.142Z,96029.16
2018-06-24T07:37:59.524Z,96028.31
2018-06-24T07:40:29.734Z,96023.59
2018-06-24T07:42:59.982Z,96019.38
2018-06-24T07:45:30.142Z,96017.88
2018-06-24T07:48:00.242Z,96022.55
2018-06-24T07:50:30.367Z,96020.16
2018-06-24T07:53:00.623Z,96022.05
2018-06-24T07:55:32.717Z,96021.29
2018-06-24T07:58:02.802Z,96019.70
2018-06-24T08:00:32.908Z,96018.45
2018-06-24T08:03:02.982Z,96021.98
2018-06-24T08:05:33.100Z,96017.94
2018-06-24T08:08:03.265Z,96019.23
2018-06-24T08:10:33.374Z,96011.05
2018-06-24T08:13:03.675Z,96017.31
2018-06-24T08:15:33.807Z,96024.33
2018-06-24T08:18:03.935Z,96018.23
2018-06-24T08:20:34.051Z,96018.52
2018-06-24T08:23:04.157Z,96021.27
2018-06-24T08:25:34.337Z,96015.70
2018-06-24T08:28:04.412Z,96018.47
2018-06-24T08:30:34.514Z,96016.61
2018-06-24T08:33:04.579Z,96016.97
2018-06-24T08:35:34.689Z,96011.02
2018-06-24T08:38:05.051Z,96010.75
2018-06-24T08:40:35.255Z,96017.20
2018-06-24T08:43:05.339Z,96021.48
2018-06-24T08:45:35.469Z,96019.59
2018-06-24T08:48:06.841Z,96021.47
2018-06-24T08:50:36.983Z,96023.34
2018-06-24T08:53:07.080Z,96019.29
2018-06-24T08:55:37.209Z,96030.34
2018-06-24T08:58:07.839Z,96028.17
2018-06-24T09:00:37.987Z,96023.84
2018-06-24T09:03:08.144Z,96029.80
2018-06-24T09:05:38.247Z,96029.25
2018-06-24T09:08:08.560Z,96030.02
2018-06-24T09:10:38.646Z,96025.36
2018-06-24T09:13:08.768Z,96033.77
2018-06-24T09:15:38.940Z,96036.78
2018-06-24T09:18:09.143Z,96030.09
2018-06-24T09:20:39.219Z,96029.56
2018-06-24T09:23:09.392Z,96034.75
2018-06-24T09:25:39.455Z,96021.02
2018-06-24T09:28:09.532Z,96024.00
2018-06-24T09:30:39.629Z,96030.47
2018-06-24T09:33:09.753Z,96038.28
2018-06-24T09:35:39.831Z,96027.20
2018-06-24T09:38:09.690Z,96024.78
2018-06-24T09:40:39.817Z,96026.84
2018-06-24T09:43:09.973Z,96020.66
2018-06-24T09:45:40.094Z,96019.39
2018-06-24T09:48:10.337Z,96026.95
2018-06-24T09:50:40.409Z,96023.47
2018-06-24T09:53:10.536Z,96019.95
2018-06-24T09:55:40.963Z,96022.61
2018-06-24T09:58:11.188Z,96018.06
2018-06-24T10:00:41.544Z,96019.68
2018-06-24T10:03:11.830Z,96016.47
2018-06-24T10:05:41.994Z,96019.43
2018-06-24T10:08:12.103Z,96017.02
2018-06-24T10:10:42.243Z,96008.36
2018-06-24T10:13:12.411Z,96009.72
2018-06-24T10:15:42.543Z,96016.19
2018-06-24T10:18:12.710Z,96011.61
2018-06-24T10:20:42.809Z,96007.28
2018-06-24T10:23:12.924Z,96001.88
2018-06-24T10:25:43.099Z,95999.18
2018-06-24T10:28:13.208Z,96000.55
2018-06-24T10:30:43.284Z,95966.52
2018-06-24T10:33:13.382Z,95995.95
2018-06-24T10:35:43.467Z,95993.77
2018-06-24T10:38:13.575Z,95992.14
2018-06-24T10:40:43.653Z,96001.06
2018-06-24T10:43:13.772Z,96006.72
2018-06-24T10:45:43.878Z,95998.84
2018-06-24T10:48:13.572Z,95997.73
2018-06-24T10:50:44.029Z,95991.30
2018-06-24T10:53:14.164Z,95989.39
2018-06-24T10:55:44.497Z,95991.07
2018-06-24T10:58:15.098Z,95985.34
2018-06-24T11:00:45.286Z,95982.40
2018-06-24T11:03:15.539Z,95989.39
2018-06-24T11:05:45.974Z,95998.84
2018-06-24T11:08:16.290Z,95995.55
2018-06-24T11:10:46.356Z,95999.83
2018-06-24T11:13:16.496Z,96000.11
2018-06-24T11:15:46.608Z,96001.02
2018-06-24T11:18:16.718Z,95994.69
2018-06-24T11:20:46.996Z,95994.48
2018-06-24T11:23:17.246Z,95989.61
2018-06-24T11:25:47.329Z,95987.48
2018-06-24T11:28:17.408Z,95980.65
2018-06-24T11:30:47.543Z,95979.77
2018-06-24T11:33:17.687Z,95986.07
2018-06-24T11:35:47.795Z,95980.26
2018-06-24T11:38:18.162Z,95977.73
2018-06-24T11:40:48.446Z,95973.53
2018-06-24T11:43:18.527Z,95968.70
2018-06-24T11:45:48.639Z,95972.41
2018-06-24T11:48:18.752Z,95975.25
2018-06-24T11:50:49.155Z,95976.98
2018-06-24T11:53:24.826Z,95979.41
2018-06-24T11:55:55.267Z,95981.78
2018-06-24T11:58:25.413Z,95968.29
2018-06-24T12:00:55.529Z,95970.81
2018-06-24T12:03:25.626Z,95963.62
2018-06-24T12:05:55.736Z,95966.33
2018-06-24T12:08:25.797Z,95978.52
2018-06-24T12:10:56.018Z,95970.37
2018-06-24T12:13:26.049Z,95968.26
2018-06-24T12:15:56.107Z,95965.59
2018-06-24T12:18:26.162Z,95966.95
2018-06-24T12:20:56.230Z,95969.17
2018-06-24T12:23:25.917Z,95967.55
2018-06-24T12:25:56.096Z,95958.54
2018-06-24T12:28:26.148Z,95957.30
2018-06-24T12:30:59.856Z,95966.03
2018-06-24T12:33:29.908Z,95960.30
2018-06-24T12:36:00.041Z,95964.09
2018-06-24T12:38:29.744Z,95959.22
2018-06-24T12:40:59.906Z,95964.06
2018-06-24T12:43:29.993Z,95958.66
2018-06-24T12:46:00.069Z,95961.63
2018-06-24T12:48:30.073Z,95955.86
2018-06-24T12:51:00.322Z,95942.44
2018-06-24T12:53:30.327Z,95945.10
2018-06-24T12:56:00.412Z,95952.58
2018-06-24T12:58:30.567Z,95954.67
2018-06-24T13:01:00.698Z,95951.72
2018-06-24T13:03:30.712Z,95949.11
2018-06-24T13:06:00.864Z,95950.36
2018-06-24T13:08:30.922Z,95948.42
2018-06-24T13:11:01.048Z,95941.13
2018-06-24T13:13:31.129Z,95941.30
2018-06-24T13:16:01.261Z,95943.66
2018-06-24T13:18:31.336Z,95943.95
2018-06-24T13:21:01.766Z,95940.88
2018-06-24T13:23:32.149Z,95931.93
2018-06-24T13:26:02.466Z,95930.00
2018-06-24T13:28:32.635Z,95936.02
2018-06-24T13:31:03.280Z,95932.55
2018-06-24T13:33:33.350Z,95929.88
2018-06-24T13:36:03.627Z,95932.21
2018-06-24T13:38:33.973Z,95928.19
2018-06-24T13:41:04.167Z,95933.56
2018-06-24T13:43:34.295Z,95932.89
2018-06-24T13:46:04.416Z,95929.08
2018-06-24T13:48:34.561Z,95929.15
2018-06-24T13:51:05.286Z,95922.45
2018-06-24T13:53:35.410Z,95922.86
2018-06-24T13:56:05.883Z,95928.72
2018-06-24T13:58:36.000Z,95931.37
2018-06-24T14:01:06.168Z,95933.56
2018-06-24T14:03:36.878Z,95928.34
2018-06-24T14:06:07.171Z,95922.16
2018-06-24T14:08:37.253Z,95913.22
2018-06-24T14:11:06.997Z,95915.98
2018-06-24T14:13:37.132Z,95915.66
2018-06-24T14:16:07.591Z,95916.52
2018-06-24T14:18:37.779Z,95906.54
2018-06-24T14:21:07.866Z,95915.87
2018-06-24T14:23:37.517Z,95911.34
2018-06-24T14:26:07.681Z,95907.27
2018-06-24T14:28:37.808Z,95906.54
2018-06-24T14:31:08.444Z,95911.78
2018-06-24T14:33:38.804Z,95910.99
2018-06-24T14:36:08.978Z,95902.70
2018-06-24T14:38:39.078Z,95908.25
2018-06-24T14:41:09.265Z,95904.48
2018-06-24T14:43:40.221Z,95907.35
2018-06-24T14:46:10.349Z,95899.70
2018-06-24T14:48:40.404Z,95904.70
2018-06-24T14:51:10.509Z,95899.48
2018-06-24T14:53:40.678Z,95896.38
2018-06-24T14:56:10.861Z,95892.64
2018-06-24T14:58:40.951Z,95901.71
2018-06-24T15:01:11.087Z,95893.91
2018-06-24T15:03:41.187Z,95897.35
2018-06-24T15:06:11.324Z,95886.16
2018-06-24T15:08:41.436Z,95887.34
2018-06-24T15:11:11.623Z,95890.03
2018-06-24T15:13:41.738Z,95900.94
2018-06-24T15:16:11.867Z,95900.80
2018-06-24T15:18:41.982Z,95893.23
2018-06-24T15:21:12.158Z,95897.86
2018-06-24T15:23:42.271Z,95893.61
2018-06-24T15:26:12.366Z,95898.55
2018-06-24T15:28:43.186Z,95895.20
2018-06-24T15:31:13.611Z,95893.83
2018-06-24T15:33:43.727Z,95890.61
2018-06-24T15:36:13.969Z,95891.33
2018-06-24T15:38:44.232Z,95884.73
2018-06-24T15:41:14.483Z,95874.22
2018-06-24T15:43:44.688Z,95876.55
2018-06-24T15:46:18.924Z,95875.17
2018-06-24T15:48:49.141Z,95877.27
2018-06-24T15:51:20.225Z,95881.87
2018-06-24T15:53:50.373Z,95874.92
2018-06-24T15:56:20.450Z,95881.38
2018-06-24T15:58:50.552Z,95882.50
2018-06-24T16:01:21.310Z,95881.97
2018-06-24T16:03:52.005Z,95876.52
2018-06-24T16:06:23.072Z,95874.88
2018-06-24T16:08:53.219Z,95867.98
2018-06-24T16:11:23.290Z,95866.09
2018-06-24T16:13:53.456Z,95862.05
2018-06-24T16:16:23.952Z,95864.20
2018-06-24T16:18:54.108Z,95871.02
2018-06-24T16:21:24.178Z,95866.23
2018-06-24T16:23:54.257Z,95859.00
2018-06-24T16:26:24.316Z,95860.30
2018-06-24T16:28:54.463Z,95857.35
2018-06-24T16:31:24.539Z,95849.28
2018-06-24T16:33:54.596Z,95850.64
2018-06-24T16:36:24.726Z,95853.66
2018-06-24T16:38:54.857Z,95849.59
2018-06-24T16:41:25.010Z,95855.66
2018-06-24T16:43:55.114Z,95854.63
2018-06-24T16:46:25.178Z,95859.59
2018-06-24T16:48:55.307Z,95862.58
2018-06-24T16:51:25.448Z,95859.43
2018-06-24T16:53:55.547Z,95859.78
2018-06-24T16:56:25.649Z,95862.28
2018-06-24T16:58:55.836Z,95857.69
2018-06-24T17:01:26.718Z,95856.78
2018-06-24T17:04:02.102Z,95855.17
2018-06-24T17:06:33.049Z,95854.41
2018-06-24T17:09:07.966Z,95858.73
2018-06-24T17:11:43.155Z,95857.48
2018-06-24T17:14:15.650Z,95858.55
2018-06-24T17:16:45.740Z,95867.28
2018-06-24T17:19:15.832Z,95858.90
2018-06-24T17:21:45.862Z,95863.49
2018-06-24T17:24:15.990Z,95864.61
2018-06-24T17:26:46.082Z,95864.40
2018-06-24T17:29:15.784Z,95863.88
2018-06-24T17:31:45.919Z,95873.88
2018-06-24T17:34:18.171Z,95873.67
2018-06-24T17:36:48.522Z,95870.45
2018-06-24T17:39:18.652Z,95861.60
2018-06-24T17:41:48.682Z,95862.17
2018-06-24T17:44:18.886Z,95868.38
2018-06-24T17:46:49.442Z,95872.45
2018-06-24T17:49:19.575Z,95864.36
2018-06-24T17:51:49.752Z,95858.70
2018-06-24T17:54:20.664Z,95867.38
2018-06-24T17:56:51.750Z,95868.44
2018-06-24T17:59:21.962Z,95866.03
2018-06-24T18:01:52.065Z,95855.77
2018-06-24T18:04:21.747Z,95854.20
2018-06-24T18:06:51.860Z,95876.61
2018-06-24T18:09:21.938Z,95866.64
2018-06-24T18:11:52.126Z,95864.75
2018-06-24T18:14:22.446Z,95866.11
2018-06-24T18:16:52.638Z,95863.16
2018-06-24T18:19:22.815Z,95863.69
2018-06-24T18:21:52.915Z,95863.44
2018-06-24T18:24:23.157Z,95861.56
2018-06-24T18:26:53.249Z,95862.91
2018-06-24T18:29:23.421Z,95864.54
2018-06-24T18:31:53.701Z,95870.74
2018-06-24T18:34:23.810Z,95875.86
2018-06-24T18:36:53.962Z,95870.75
2018-06-24T18:39:24.089Z,95872.63
2018-06-24T18:41:54.268Z,95862.93
2018-06-24T18:44:24.320Z,95869.91
2018-06-24T18:46:54.499Z,95876.38
2018-06-24T18:49:24.643Z,95884.21
2018-06-24T18:51:54.845Z,95868.03
2018-06-24T18:54:25.355Z,95866.67
2018-06-24T18:56:55.064Z,95872.60
2018-06-24T18:59:25.214Z,95874.76
2018-06-24T19:01:55.562Z,95866.66
2018-06-24T19:04:25.797Z,95868.56
2018-06-24T19:06:56.133Z,95868.83
2018-06-24T19:09:26.250Z,95871.53
2018-06-24T19:11:56.344Z,95867.73
2018-06-24T19:14:27.812Z,95867.72
2018-06-24T19:16:57.947Z,95864.23
2018-06-24T19:19:28.038Z,95863.69
2018-06-24T19:21:58.231Z,95872.57
2018-06-24T19:24:28.544Z,95872.55
2018-06-24T19:26:58.877Z,95869.30
2018-06-24T19:29:29.036Z,95865.27
2018-06-24T19:31:59.153Z,95868.22
2018-06-24T19:34:28.829Z,95876.56
2018-06-24T19:36:59.518Z,95872.25
2018-06-24T19:39:29.576Z,95873.58
2018-06-24T19:41:59.701Z,95876.52
2018-06-24T19:44:29.866Z,95878.44
2018-06-24T19:46:59.959Z,95885.16
2018-06-24T19:49:30.058Z,95883.27
2018-06-24T19:52:00.260Z,95888.90
2018-06-24T19:54:30.346Z,95891.80
2018-06-24T19:57:00.427Z,95889.11
2018-06-24T19:59:30.530Z,95889.89
2018-06-24T20:02:00.643Z,95899.58
2018-06-24T20:04:30.345Z,95901.20
2018-06-24T20:07:00.091Z,95907.10
2018-06-24T20:09:30.414Z,95907.13
2018-06-24T20:12:00.591Z,95915.00
2018-06-24T20:14:30.670Z,95909.08
2018-06-24T20:17:00.772Z,95906.54
2018-06-24T20:19:30.951Z,95912.76
2018-06-24T20:22:02.212Z,95908.73
2018-06-24T20:24:33.447Z,95908.16
2018-06-24T20:27:03.577Z,95912.48
2018-06-24T20:29:33.720Z,95912.48
2018-06-24T20:32:03.449Z,95913.00
2018-06-24T20:34:33.058Z,95915.72
2018-06-24T20:37:03.184Z,95909.48
2018-06-24T20:39:33.259Z,95912.15
2018-06-24T20:42:03.284Z,95912.97
2018-06-24T20:44:33.412Z,95923.99
2018-06-24T20:47:03.555Z,95919.14
2018-06-24T20:49:33.829Z,95922.84
2018-06-24T20:52:03.907Z,95923.67
2018-06-24T20:54:34.052Z,95924.45
2018-06-24T20:57:04.286Z,95925.03
2018-06-24T20:59:34.320Z,95922.84
2018-06-24T21:02:04.453Z,95928.50
2018-06-24T21:04:34.521Z,95931.20
2018-06-24T21:07:04.157Z,95931.47
2018-06-24T21:09:33.902Z,95936.20
2018-06-24T21:12:03.916Z,95939.98
2018-06-24T21:14:34.032Z,95939.69
2018-06-24T21:17:04.295Z,95942.34
2018-06-24T21:19:34.305Z,95937.80
2018-06-24T21:22:04.379Z,95935.06
2018-06-24T21:24:41.392Z,95939.69
2018-06-24T21:27:12.352Z,95941.75
2018-06-24T21:29:42.395Z,95939.34
2018-06-24T21:32:12.533Z,95934.53
2018-06-24T21:34:42.528Z,95938.05
2018-06-24T21:37:12.740Z,95943.34
2018-06-24T21:39:42.776Z,95938.75
2018-06-24T21:42:12.812Z,95934.59
2018-06-24T21:44:42.942Z,95940.18
2018-06-24T21:47:13.179Z,95937.78
2018-06-24T21:49:43.298Z,95934.02
2018-06-24T21:52:13.319Z,95932.42
2018-06-24T21:54:43.391Z,95927.55
2018-06-24T21:57:13.451Z,95923.52
2018-06-24T21:59:44.054Z,95930.53
2018-06-24T22:02:14.682Z,95937.20
2018-06-24T22:04:44.753Z,95932.72
2018-06-24T22:07:14.816Z,95930.06
2018-06-24T22:09:44.917Z,95940.03
2018-06-24T22:12:14.991Z,95939.84
2018-06-24T22:14:45.072Z,95940.61
2018-06-24T22:17:15.346Z,95936.20
2018-06-24T22:19:45.434Z,95939.69
2018-06-24T22:22:15.544Z,95935.89
2018-06-24T22:24:45.586Z,95938.58
2018-06-24T22:27:15.691Z,95954.47
2018-06-24T22:29:45.746Z,95953.63
2018-06-24T22:32:15.847Z,95950.91
2018-06-24T22:34:45.930Z,95948.16
2018-06-24T22:37:15.585Z,95949.56
2018-06-24T22:39:45.669Z,95955.64
2018-06-24T22:42:15.819Z,95949.22
2018-06-24T22:44:45.854Z,95952.14
2018-06-24T22:47:15.884Z,95953.48
2018-06-24T22:49:45.936Z,95953.42
2018-06-24T22:52:16.010Z,95916.33
2018-06-24T22:54:46.067Z,95946.70
2018-06-24T22:57:16.083Z,95952.67
2018-06-24T23:00:17.900Z,95952.08
2018-06-24T23:02:47.988Z,95951.14
2018-06-24T23:05:18.069Z,95948.42
2018-06-24T23:07:48.152Z,95955.41
2018-06-24T23:10:18.270Z,95957.62
2018-06-24T23:12:48.337Z,95953.89
2018-06-24T23:15:18.441Z,95958.70
2018-06-24T23:17:48.537Z,95965.98
2018-06-24T23:20:18.577Z,95959.47
2018-06-24T23:22:48.635Z,95959.37
2018-06-24T23:25:18.709Z,95963.10
2018-06-24T23:27:48.817Z,95954.48
2018-06-24T23:30:18.875Z,95964.91
2018-06-24T23:32:48.875Z,95957.86
2018-06-24T23:35:18.986Z,95961.63
2018-06-24T23:37:49.058Z,95954.28
2018-06-24T23:40:19.164Z,95952.64
2018-06-24T23:42:49.184Z,95952.91
2018-06-24T23:45:19.255Z,95949.67
2018-06-24T23:47:49.270Z,95955.30
2018-06-24T23:50:19.335Z,95952.51
2018-06-24T23:52:49.348Z,95948.15
2018-06-24T23:55:19.421Z,95945.02
2018-06-24T23:57:49.403Z,95936.96
